Time;durP1;ratioP1;P1;durP2;ratioP2;P2;SDS_P1;SDS_P2;PMS_P1;PMS_P2;Temp;Humidity;BMP_temperature;BMP_pressure;BME280_temperature;BME280_humidity;BME280_pressure;Samples;Min_cycle;Max_cycle;Signal;HPM_P1;HPM_P2
2022/07/31 00:00:51;;;;;;;4.07;1.77;;;19.00;99.90;;;;;;5061742;28;20044;-72
2022/07/31 00:03:17;;;;;;;2.90;1.55;;;19.00;99.90;;;;;;5066550;28;20040;-71
2022/07/31 00:05:42;;;;;;;2.65;1.50;;;18.90;99.90;;;;;;5056308;28;20064;-71
2022/07/31 00:08:08;;;;;;;4.28;1.70;;;18.90;99.90;;;;;;5056889;28;20549;-72
2022/07/31 00:10:34;;;;;;;2.67;1.60;;;18.80;99.90;;;;;;5042803;28;20044;-72
2022/07/31 00:12:59;;;;;;;3.25;1.60;;;18.80;99.90;;;;;;5054654;28;20357;-72
2022/07/31 00:15:25;;;;;;;3.60;1.48;;;18.80;99.90;;;;;;5062020;28;20040;-72
2022/07/31 00:17:51;;;;;;;2.85;1.60;;;18.80;99.90;;;;;;5065356;28;20447;-72
2022/07/31 00:20:17;;;;;;;2.60;1.65;;;18.70;99.90;;;;;;5062216;28;20092;-72
2022/07/31 00:22:45;;;;;;;2.20;1.40;;;18.80;99.90;;;;;;5064422;28;20100;-72
2022/07/31 00:25:12;;;;;;;4.32;1.67;;;18.80;99.90;;;;;;5059837;28;20128;-72
2022/07/31 00:27:38;;;;;;;5.25;1.65;;;18.70;99.90;;;;;;5065407;28;20438;-72
2022/07/31 00:30:05;;;;;;;4.60;1.60;;;18.70;99.90;;;;;;5060049;28;20091;-72
2022/07/31 00:32:30;;;;;;;6.97;1.52;;;18.70;99.90;;;;;;5069380;28;20067;-72
2022/07/31 00:34:56;;;;;;;6.95;1.70;;;18.70;99.90;;;;;;5061661;28;20071;-72
2022/07/31 00:37:22;;;;;;;4.93;1.50;;;18.70;99.90;;;;;;5065420;28;20037;-72
2022/07/31 00:39:48;;;;;;;2.95;2.10;;;18.70;99.90;;;;;;5070191;28;20596;-72
2022/07/31 00:42:17;;;;;;;3.40;1.83;;;18.70;99.90;;;;;;5070643;28;20109;-72
2022/07/31 00:44:43;;;;;;;3.42;2.00;;;18.70;99.90;;;;;;5074635;28;20748;-72
2022/07/31 00:47:09;;;;;;;2.72;1.88;;;18.70;99.90;;;;;;5067641;28;20693;-72
2022/07/31 00:49:35;;;;;;;4.40;1.65;;;18.70;99.90;;;;;;5067188;28;20059;-72
2022/07/31 00:52:00;;;;;;;3.30;1.50;;;18.70;99.90;;;;;;5058449;28;20039;-72
2022/07/31 00:54:26;;;;;;;3.42;2.22;;;18.70;99.90;;;;;;5061334;28;20053;-71
2022/07/31 00:56:51;;;;;;;2.65;1.63;;;18.70;99.90;;;;;;5066009;28;20119;-71
2022/07/31 00:59:17;;;;;;;7.75;1.83;;;18.70;99.90;;;;;;5066325;28;20039;-71
2022/07/31 01:01:43;;;;;;;3.75;1.85;;;18.70;99.90;;;;;;5065390;28;20136;-72
2022/07/31 01:04:08;;;;;;;2.78;1.70;;;18.70;99.90;;;;;;5059726;28;20048;-72
2022/07/31 01:06:34;;;;;;;2.25;1.50;;;18.70;99.90;;;;;;5048593;28;20048;-71
2022/07/31 01:09:00;;;;;;;3.10;1.85;;;18.70;99.90;;;;;;5075519;28;20148;-71
2022/07/31 01:11:46;;;;;;;5.25;1.58;;;18.60;99.90;;;;;;5070596;28;20115;-68
2022/07/31 01:14:15;;;;;;;4.30;1.25;;;18.70;99.90;;;;;;5041898;28;20139;-68
2022/07/31 01:16:52;;;;;;;3.60;1.85;;;18.60;99.90;;;;;;5049142;28;20059;-72
2022/07/31 01:19:32;;;;;;;;;;;18.70;99.90;;;;;;5066734;28;20041;-68
2022/07/31 01:22:37;;;;;;;3.55;1.85;;;18.60;99.90;;;;;;5059800;28;19935;-68
2022/07/31 01:25:48;;;;;;;3.90;2.00;;;18.60;99.90;;;;;;5048618;28;20140;-70
2022/07/31 01:28:50;;;;;;;3.00;2.17;;;18.60;99.90;;;;;;4971035;28;20044;-68
2022/07/31 01:31:30;;;;;;;2.28;1.63;;;18.60;99.90;;;;;;5066883;28;20079;-71
2022/07/31 01:34:23;;;;;;;3.50;2.00;;;18.60;99.90;;;;;;5046712;28;20048;-71
2022/07/31 01:37:04;;;;;;;3.10;1.80;;;18.60;99.90;;;;;;5030243;28;20531;-70
2022/07/31 01:39:32;;;;;;;5.13;1.75;;;18.60;99.90;;;;;;5048779;28;20036;-71
2022/07/31 01:42:01;;;;;;;2.47;1.88;;;18.50;99.90;;;;;;5054340;28;20040;-71
2022/07/31 01:44:28;;;;;;;2.53;1.73;;;18.60;99.90;;;;;;5052520;28;20036;-70
2022/07/31 01:46:57;;;;;;;3.90;1.77;;;18.60;99.90;;;;;;5054357;28;20174;-72
2022/07/31 01:49:24;;;;;;;3.97;2.17;;;18.60;99.90;;;;;;5034325;28;20125;-71
2022/07/31 01:51:50;;;;;;;2.88;1.90;;;18.60;99.90;;;;;;5035369;28;20110;-70
2022/07/31 01:54:18;;;;;;;5.95;1.63;;;18.50;99.90;;;;;;5053736;28;21145;-70
2022/07/31 01:56:48;;;;;;;5.13;2.05;;;18.60;99.90;;;;;;5050212;28;20143;-71
2022/07/31 01:59:14;;;;;;;2.72;1.73;;;18.50;99.90;;;;;;5050653;28;20102;-70
2022/07/31 02:01:42;;;;;;;3.17;1.80;;;18.60;99.90;;;;;;5045422;28;20499;-70
2022/07/31 02:04:09;;;;;;;2.83;2.03;;;18.50;99.90;;;;;;5049090;28;20074;-71
2022/07/31 02:06:35;;;;;;;3.65;2.20;;;18.60;99.90;;;;;;5049703;28;20635;-70
2022/07/31 02:09:01;;;;;;;3.75;2.17;;;18.50;99.90;;;;;;5047316;28;20144;-71
2022/07/31 02:11:28;;;;;;;3.20;1.95;;;18.60;99.90;;;;;;5056084;28;20074;-78
2022/07/31 02:13:55;;;;;;;2.95;1.77;;;18.50;99.90;;;;;;5064671;28;20384;-70
2022/07/31 02:16:22;;;;;;;3.50;2.15;;;18.60;99.90;;;;;;5055654;28;20426;-71
2022/07/31 02:18:49;;;;;;;6.20;2.13;;;18.50;99.90;;;;;;5051695;28;20153;-71
2022/07/31 02:21:15;;;;;;;3.70;2.42;;;18.50;99.90;;;;;;5047924;28;20424;-70
2022/07/31 02:23:41;;;;;;;4.63;2.20;;;18.50;99.90;;;;;;5056804;22;20434;-68
2022/07/31 02:26:07;;;;;;;;;;;18.50;99.90;;;;;;5030268;28;20075;-69
2022/07/31 02:28:36;;;;;;;4.28;2.00;;;18.50;99.90;;;;;;5034991;28;19921;-69
2022/07/31 02:31:04;;;;;;;3.30;1.77;;;18.50;99.90;;;;;;5033559;28;20052;-69
2022/07/31 02:33:31;;;;;;;2.85;1.80;;;18.50;99.90;;;;;;5028905;28;20033;-69
2022/07/31 02:35:58;;;;;;;3.30;1.90;;;18.50;99.90;;;;;;5032708;28;20106;-69
2022/07/31 02:38:26;;;;;;;3.58;2.05;;;18.50;99.90;;;;;;5023090;28;20049;-70
2022/07/31 02:40:58;;;;;;;2.83;1.92;;;18.40;99.90;;;;;;5020374;28;20045;-72
2022/07/31 02:43:26;;;;;;;4.50;2.40;;;18.40;99.90;;;;;;5042018;28;20409;-73
2022/07/31 02:45:53;;;;;;;3.13;2.28;;;18.40;99.90;;;;;;5020963;28;20048;-72
2022/07/31 02:48:19;;;;;;;4.25;2.08;;;18.50;99.90;;;;;;5027258;28;20478;-72
2022/07/31 02:50:45;;;;;;;;;;;18.50;99.90;;;;;;5028087;28;20610;-72
2022/07/31 02:53:12;;;;;;;5.45;2.38;;;18.40;99.90;;;;;;5032122;28;19935;-72
2022/07/31 02:55:39;;;;;;;4.55;2.50;;;18.40;99.90;;;;;;5034834;28;20048;-72
2022/07/31 02:58:04;;;;;;;4.68;2.40;;;18.40;99.90;;;;;;5054132;28;20032;-73
2022/07/31 03:00:30;;;;;;;6.03;2.80;;;18.40;99.90;;;;;;5035118;28;21008;-72
2022/07/31 03:02:56;;;;;;;2.90;2.15;;;18.40;99.90;;;;;;5032339;28;20060;-72
2022/07/31 03:05:23;;;;;;;3.88;2.05;;;18.40;99.90;;;;;;5021012;28;20630;-72
2022/07/31 03:07:49;;;;;;;3.05;2.03;;;18.40;99.90;;;;;;5023365;28;20558;-72
2022/07/31 03:10:15;;;;;;;3.83;2.53;;;18.30;99.90;;;;;;5030779;28;20165;-72
2022/07/31 03:12:47;;;;;;;2.92;2.10;;;18.30;99.90;;;;;;5027784;28;20098;-72
2022/07/31 03:15:15;;;;;;;3.55;2.33;;;18.30;99.90;;;;;;5034882;28;20056;-72
2022/07/31 03:17:42;;;;;;;3.33;2.08;;;18.30;99.90;;;;;;5034853;28;20060;-72
2022/07/31 03:20:09;;;;;;;3.25;2.05;;;18.30;99.90;;;;;;5040070;28;20556;-72
2022/07/31 03:22:35;;;;;;;3.53;2.20;;;18.20;99.90;;;;;;5026816;28;20041;-72
2022/07/31 03:25:02;;;;;;;;;;;18.20;99.90;;;;;;5044967;28;20203;-72
2022/07/31 03:27:28;;;;;;;3.17;2.13;;;18.10;99.90;;;;;;5036441;28;20575;-72
2022/07/31 03:29:53;;;;;;;4.05;2.13;;;18.10;99.90;;;;;;5032202;28;20047;-72
2022/07/31 03:32:20;;;;;;;3.97;2.17;;;18.10;99.90;;;;;;5031693;28;20789;-72
2022/07/31 03:34:46;;;;;;;3.92;2.40;;;18.10;99.90;;;;;;5036185;28;22806;-72
2022/07/31 03:37:13;;;;;;;;;;;18.10;99.90;;;;;;5000104;28;20045;-72
2022/07/31 03:39:39;;;;;;;5.78;2.88;;;18.10;99.90;;;;;;5030790;28;19935;-72
2022/07/31 03:42:06;;;;;;;;;;;18.00;99.90;;;;;;5026973;28;20044;-72
2022/07/31 03:44:34;;;;;;;3.35;2.13;;;18.00;99.90;;;;;;5035175;28;19920;-72
2022/07/31 03:47:00;;;;;;;4.22;2.30;;;18.10;99.90;;;;;;5036545;28;20549;-72
2022/07/31 03:49:26;;;;;;;4.57;2.65;;;18.10;99.90;;;;;;5034083;28;20383;-72
2022/07/31 03:51:52;;;;;;;4.05;2.90;;;18.10;99.90;;;;;;5035760;28;20064;-73
2022/07/31 03:54:18;;;;;;;;;;;18.00;99.90;;;;;;5028887;28;20049;-68
2022/07/31 03:56:47;;;;;;;4.90;2.67;;;18.00;99.90;;;;;;5036608;28;19966;-68
2022/07/31 03:59:14;;;;;;;3.20;2.35;;;18.00;99.90;;;;;;5029691;28;20095;-68
2022/07/31 04:01:41;;;;;;;3.95;2.55;;;18.00;99.90;;;;;;5030068;28;20042;-68
2022/07/31 04:04:06;;;;;;;3.90;2.30;;;18.00;99.90;;;;;;5048600;28;20120;-68
2022/07/31 04:06:32;;;;;;;5.85;2.58;;;18.00;99.90;;;;;;5014815;28;20136;-68
2022/07/31 04:09:00;;;;;;;3.67;2.45;;;18.00;99.90;;;;;;5025627;28;20037;-67
2022/07/31 04:11:27;;;;;;;4.63;2.53;;;18.00;99.90;;;;;;5014813;28;20123;-68
2022/07/31 04:13:53;;;;;;;6.35;2.60;;;18.00;99.90;;;;;;5033570;28;20048;-68
2022/07/31 04:16:18;;;;;;;5.43;2.70;;;18.00;99.90;;;;;;5037009;28;20441;-68
2022/07/31 04:18:44;;;;;;;3.50;2.75;;;18.00;99.90;;;;;;5034084;28;20037;-69
2022/07/31 04:21:11;;;;;;;5.38;2.70;;;18.00;99.90;;;;;;5033058;28;20807;-68
2022/07/31 04:23:36;;;;;;;4.07;2.85;;;18.00;99.90;;;;;;5025337;28;20179;-68
2022/07/31 04:26:02;;;;;;;4.30;2.70;;;18.00;99.90;;;;;;5040634;28;20074;-68
2022/07/31 04:28:28;;;;;;;4.15;3.03;;;18.00;99.90;;;;;;5035388;28;20334;-68
2022/07/31 04:30:54;;;;;;;4.88;2.72;;;18.00;99.90;;;;;;5033311;28;20035;-68
2022/07/31 04:33:20;;;;;;;5.80;2.80;;;18.10;99.90;;;;;;5036283;28;20395;-68
2022/07/31 04:35:46;;;;;;;4.50;2.80;;;18.00;99.90;;;;;;5032588;28;20038;-69
2022/07/31 04:38:15;;;;;;;4.70;3.42;;;18.00;99.90;;;;;;5032093;28;20662;-68
2022/07/31 04:40:43;;;;;;;4.95;2.90;;;18.10;99.90;;;;;;5035089;28;20155;-68
2022/07/31 04:43:09;;;;;;;4.75;3.13;;;18.10;99.90;;;;;;5030666;28;20095;-67
2022/07/31 04:45:35;;;;;;;4.35;2.80;;;18.10;99.90;;;;;;5036953;28;20110;-68
2022/07/31 04:48:01;;;;;;;3.30;2.50;;;18.10;99.90;;;;;;5033601;28;20072;-68
2022/07/31 04:50:26;;;;;;;4.00;2.63;;;18.10;99.90;;;;;;5038494;28;20059;-68
2022/07/31 04:52:52;;;;;;;6.38;2.70;;;18.20;99.90;;;;;;5033017;28;20052;-67
2022/07/31 04:55:18;;;;;;;4.53;3.05;;;18.20;99.90;;;;;;5037417;28;20376;-68
2022/07/31 04:57:44;;;;;;;4.82;2.55;;;18.20;99.90;;;;;;5034378;28;20041;-68
2022/07/31 05:00:10;;;;;;;5.70;2.97;;;18.30;99.90;;;;;;5030980;28;23026;-67
2022/07/31 05:02:36;;;;;;;4.05;2.78;;;18.20;99.90;;;;;;5031577;28;20036;-67
2022/07/31 05:05:02;;;;;;;5.47;2.65;;;18.30;99.90;;;;;;5037753;28;22659;-68
2022/07/31 05:07:28;;;;;;;;;;;18.30;99.90;;;;;;5038341;28;20059;-68
2022/07/31 05:09:54;;;;;;;5.18;2.90;;;18.30;99.90;;;;;;5052498;28;20296;-68
2022/07/31 05:12:20;;;;;;;4.32;2.95;;;18.30;99.90;;;;;;5036577;28;20053;-68
2022/07/31 05:14:45;;;;;;;3.88;2.80;;;18.40;99.90;;;;;;5039144;28;20134;-68
2022/07/31 05:17:11;;;;;;;4.13;2.78;;;18.30;99.90;;;;;;5035549;28;20124;-68
2022/07/31 05:19:37;;;;;;;5.15;3.10;;;18.30;99.90;;;;;;5020203;28;21549;-68
2022/07/31 05:22:03;;;;;;;4.20;3.10;;;18.30;99.90;;;;;;5034875;28;20029;-68
2022/07/31 05:24:30;;;;;;;5.25;2.90;;;18.40;99.90;;;;;;5031268;28;20083;-68
2022/07/31 05:26:55;;;;;;;5.80;2.45;;;18.40;99.90;;;;;;5040300;28;20045;-68
2022/07/31 05:29:21;;;;;;;5.22;2.70;;;18.40;99.90;;;;;;5033905;28;20524;-68
2022/07/31 05:31:47;;;;;;;3.25;2.30;;;18.40;99.90;;;;;;5030800;28;20051;-68
2022/07/31 05:34:13;;;;;;;3.45;2.58;;;18.50;99.90;;;;;;5034653;28;20674;-69
2022/07/31 05:36:39;;;;;;;3.92;2.60;;;18.50;99.90;;;;;;5037620;28;20041;-68
2022/07/31 05:39:04;;;;;;;5.32;3.00;;;18.50;99.90;;;;;;5032622;28;20068;-68
2022/07/31 05:41:32;;;;;;;5.75;2.75;;;18.50;99.90;;;;;;5035483;28;20049;-68
2022/07/31 05:43:58;;;;;;;4.20;2.40;;;18.50;99.90;;;;;;5035520;28;23152;-68
2022/07/31 05:46:24;;;;;;;5.10;2.55;;;18.50;99.90;;;;;;5055505;28;20037;-68
2022/07/31 05:48:50;;;;;;;3.17;2.60;;;18.50;99.90;;;;;;5034778;28;20443;-68
2022/07/31 05:51:16;;;;;;;5.07;2.60;;;18.60;99.90;;;;;;5035164;28;20041;-68
2022/07/31 05:53:41;;;;;;;4.40;2.58;;;18.60;99.90;;;;;;5030932;28;20033;-69
2022/07/31 05:56:08;;;;;;;3.58;2.63;;;18.60;99.90;;;;;;5022941;28;20031;-68
2022/07/31 05:58:34;;;;;;;5.53;2.80;;;18.60;99.90;;;;;;5034682;28;20060;-68
2022/07/31 06:01:01;;;;;;;5.03;2.85;;;18.60;99.90;;;;;;5034809;28;20164;-68
2022/07/31 06:03:27;;;;;;;4.13;2.78;;;18.70;99.90;;;;;;5025493;28;20053;-68
2022/07/31 06:05:54;;;;;;;4.63;3.00;;;18.70;99.90;;;;;;5031261;28;20060;-68
2022/07/31 06:08:19;;;;;;;3.83;2.72;;;18.70;99.90;;;;;;5035999;28;20476;-68
2022/07/31 06:10:45;;;;;;;5.38;3.20;;;18.70;99.90;;;;;;5031438;28;20049;-68
2022/07/31 06:13:12;;;;;;;3.55;2.60;;;18.70;99.90;;;;;;5040094;28;20036;-68
2022/07/31 06:15:38;;;;;;;4.10;2.70;;;18.70;99.90;;;;;;5019889;28;20069;-68
2022/07/31 06:18:04;;;;;;;5.03;2.95;;;18.70;99.90;;;;;;5034609;28;20045;-68
2022/07/31 06:20:30;;;;;;;10.52;3.35;;;18.80;99.90;;;;;;5038473;28;20041;-68
2022/07/31 06:22:56;;;;;;;;;;;18.90;99.90;;;;;;5038858;28;20037;-68
2022/07/31 06:25:21;;;;;;;5.20;2.97;;;18.80;99.90;;;;;;5028317;28;21467;-68
2022/07/31 06:27:47;;;;;;;4.20;2.63;;;18.90;99.90;;;;;;5031081;28;20052;-68
2022/07/31 06:30:13;;;;;;;4.30;2.83;;;18.90;99.90;;;;;;5027501;28;22700;-68
2022/07/31 06:32:39;;;;;;;3.33;2.42;;;18.80;99.90;;;;;;5037290;28;20037;-68
2022/07/31 06:35:06;;;;;;;4.20;2.72;;;19.00;99.90;;;;;;5033583;28;20062;-68
2022/07/31 06:37:32;;;;;;;4.15;3.35;;;19.00;99.90;;;;;;5037004;28;20037;-68
2022/07/31 06:39:58;;;;;;;5.50;3.45;;;19.00;99.90;;;;;;5037902;28;20036;-68
2022/07/31 06:42:25;;;;;;;5.32;3.50;;;19.10;99.90;;;;;;5035295;28;20493;-69
2022/07/31 06:44:51;;;;;;;5.63;3.42;;;19.10;99.90;;;;;;5034165;28;20033;-68
2022/07/31 06:47:19;;;;;;;5.15;3.05;;;19.10;99.90;;;;;;5024316;28;20033;-68
2022/07/31 06:49:45;;;;;;;5.10;2.92;;;19.20;99.90;;;;;;5036343;28;20041;-68
2022/07/31 06:52:10;;;;;;;6.05;3.88;;;19.20;99.90;;;;;;5035128;28;20401;-68
2022/07/31 06:54:36;;;;;;;6.82;3.58;;;19.20;99.90;;;;;;5024095;28;20098;-68
2022/07/31 06:57:02;;;;;;;4.28;3.30;;;19.30;99.90;;;;;;5020914;28;20071;-68
2022/07/31 06:59:28;;;;;;;6.97;3.33;;;19.30;99.90;;;;;;5028294;28;20758;-67
2022/07/31 07:01:54;;;;;;;5.55;3.72;;;19.50;99.90;;;;;;5030763;28;20029;-68
2022/07/31 07:04:19;;;;;;;4.35;3.28;;;19.50;99.90;;;;;;5042997;28;20056;-68
2022/07/31 07:06:45;;;;;;;5.28;3.35;;;19.50;99.90;;;;;;5030071;28;20524;-68
2022/07/31 07:09:11;;;;;;;7.13;3.80;;;19.60;99.90;;;;;;5027795;28;20065;-68
2022/07/31 07:11:37;;;;;;;6.53;3.70;;;19.60;99.90;;;;;;5031371;28;20879;-68
2022/07/31 07:14:02;;;;;;;5.18;4.10;;;19.70;99.90;;;;;;5037652;28;20197;-68
2022/07/31 07:16:28;;;;;;;5.30;3.72;;;19.70;99.90;;;;;;5036656;28;20132;-68
2022/07/31 07:18:54;;;;;;;5.78;3.78;;;19.80;99.90;;;;;;5025152;28;20646;-68
2022/07/31 07:21:19;;;;;;;6.93;3.53;;;19.80;99.90;;;;;;5035044;28;20045;-68
2022/07/31 07:23:45;;;;;;;8.38;3.53;;;19.80;99.90;;;;;;5032299;28;20585;-68
2022/07/31 07:26:11;;;;;;;5.95;4.18;;;19.90;99.90;;;;;;5025063;28;20211;-69
2022/07/31 07:28:37;;;;;;;6.75;4.18;;;19.90;99.90;;;;;;5036836;28;20033;-68
2022/07/31 07:31:04;;;;;;;6.95;3.80;;;19.90;99.90;;;;;;5037196;28;20635;-68
2022/07/31 07:33:30;;;;;;;7.35;3.95;;;20.00;99.90;;;;;;5037835;28;20089;-68
2022/07/31 07:35:56;;;;;;;5.97;3.90;;;20.00;99.90;;;;;;5031858;28;20045;-68
2022/07/31 07:38:22;;;;;;;5.18;3.78;;;20.10;99.90;;;;;;5032324;28;20481;-68
2022/07/31 07:40:48;;;;;;;7.07;4.10;;;20.10;99.90;;;;;;5036867;28;20115;-68
2022/07/31 07:43:14;;;;;;;7.00;3.70;;;20.10;99.90;;;;;;5033139;28;20037;-68
2022/07/31 07:45:40;;;;;;;6.32;3.78;;;20.10;99.90;;;;;;5032679;28;20042;-68
2022/07/31 07:48:06;;;;;;;6.20;3.67;;;20.20;99.90;;;;;;5032104;28;20578;-68
2022/07/31 07:50:32;;;;;;;5.43;3.45;;;20.20;99.90;;;;;;5019665;28;20044;-68
2022/07/31 07:52:57;;;;;;;4.82;3.83;;;20.20;99.90;;;;;;5030596;28;20132;-68
2022/07/31 07:55:23;;;;;;;5.93;3.55;;;20.20;99.90;;;;;;5030703;28;20048;-68
2022/07/31 07:57:49;;;;;;;10.13;3.90;;;20.30;99.90;;;;;;5041949;28;20080;-68
2022/07/31 08:00:15;;;;;;;7.00;4.15;;;20.30;99.90;;;;;;5023960;28;20496;-68
2022/07/31 08:02:43;;;;;;;7.10;3.67;;;20.30;99.90;;;;;;5025554;28;20128;-68
2022/07/31 08:05:09;;;;;;;7.60;3.97;;;20.40;99.90;;;;;;5024917;28;20053;-68
2022/07/31 08:07:36;;;;;;;;;;;20.40;99.90;;;;;;5022985;28;20523;-68
2022/07/31 08:10:03;;;;;;;8.70;4.37;;;20.40;99.90;;;;;;5032186;28;20007;-68
2022/07/31 08:12:28;;;;;;;6.60;3.97;;;20.40;99.90;;;;;;5035674;28;20045;-69
2022/07/31 08:14:54;;;;;;;9.48;4.95;;;20.40;99.90;;;;;;5038634;28;20181;-69
2022/07/31 08:17:20;;;;;;;11.07;5.00;;;20.40;99.90;;;;;;5035342;28;20450;-69
2022/07/31 08:19:45;;;;;;;8.70;5.03;;;20.40;99.90;;;;;;5009050;28;20037;-69
2022/07/31 08:22:12;;;;;;;8.05;4.63;;;20.30;99.90;;;;;;5029347;28;20047;-69
2022/07/31 08:24:37;;;;;;;;;;;20.30;99.90;;;;;;5103567;23;20565;-72
2022/07/31 08:29:47;;;;;;;7.55;5.10;;;20.30;99.90;;;;;;5035494;28;20045;-72
2022/07/31 08:32:13;;;;;;;9.32;4.80;;;20.30;99.90;;;;;;4995000;28;20547;-72
2022/07/31 08:34:39;;;;;;;11.55;5.10;;;20.30;99.90;;;;;;5021993;28;20089;-72
2022/07/31 08:37:05;;;;;;;;;;;20.30;99.90;;;;;;5024563;28;20034;-71
2022/07/31 08:39:35;;;;;;;11.07;5.10;;;20.30;99.90;;;;;;5012791;28;19925;-72
2022/07/31 08:42:08;;;;;;;8.70;5.32;;;20.20;99.90;;;;;;5021525;28;20044;-72
2022/07/31 08:44:39;;;;;;;9.52;5.70;;;20.20;99.90;;;;;;5013117;28;20132;-72
2022/07/31 08:47:06;;;;;;;11.20;6.10;;;20.20;99.90;;;;;;5017285;28;20494;-72
2022/07/31 08:49:37;;;;;;;10.35;6.00;;;20.10;99.90;;;;;;5021751;28;20533;-72
2022/07/31 08:52:04;;;;;;;9.40;5.47;;;20.10;99.90;;;;;;4996591;28;20505;-72
2022/07/31 08:54:34;;;;;;;11.48;6.50;;;20.10;99.90;;;;;;5010994;28;20045;-72
2022/07/31 08:57:03;;;;;;;11.10;6.47;;;20.10;99.90;;;;;;5016157;28;22961;-72
2022/07/31 08:59:29;;;;;;;11.13;5.68;;;20.10;99.90;;;;;;5021229;28;20513;-71
2022/07/31 09:01:55;;;;;;;10.85;5.72;;;20.10;99.90;;;;;;5017448;28;20032;-71
2022/07/31 09:04:24;;;;;;;8.57;5.40;;;20.10;99.90;;;;;;5020287;28;20107;-72
2022/07/31 09:06:51;;;;;;;10.65;6.20;;;20.10;99.90;;;;;;5012070;28;20124;-72
2022/07/31 09:09:18;;;;;;;11.13;5.95;;;20.10;99.90;;;;;;5016590;28;20434;-71
2022/07/31 09:11:49;;;;;;;7.63;5.00;;;20.10;99.90;;;;;;5015657;28;20046;-72
2022/07/31 09:14:28;;;;;;;11.27;6.05;;;20.10;99.90;;;;;;5023025;28;23519;-72
2022/07/31 09:16:55;;;;;;;11.95;6.55;;;20.10;99.90;;;;;;5017582;28;20045;-72
2022/07/31 09:19:23;;;;;;;8.35;6.10;;;20.10;99.90;;;;;;5014288;28;20042;-72
2022/07/31 09:21:49;;;;;;;11.45;6.40;;;20.10;99.90;;;;;;5016153;28;20042;-72
2022/07/31 09:24:30;;;;;;;8.90;5.95;;;20.00;99.90;;;;;;5015775;28;20148;-72
2022/07/31 09:27:08;;;;;;;10.85;6.20;;;20.00;99.90;;;;;;5024587;28;20461;-73
2022/07/31 09:29:43;;;;;;;8.90;5.95;;;20.00;99.90;;;;;;5016346;28;20055;-73
2022/07/31 09:32:10;;;;;;;14.10;6.47;;;19.90;99.90;;;;;;5001508;28;20768;-71
2022/07/31 09:34:35;;;;;;;12.25;6.18;;;19.90;99.90;;;;;;5022222;28;20559;-72
2022/07/31 09:37:09;;;;;;;9.15;5.65;;;19.90;99.90;;;;;;5015374;28;20045;-73
2022/07/31 09:39:36;;;;;;;12.43;6.78;;;19.90;99.90;;;;;;4991735;28;20037;-72
2022/07/31 09:42:02;;;;;;;10.82;6.75;;;19.90;99.90;;;;;;5001579;28;20849;-72
2022/07/31 09:44:39;;;;;;;13.32;6.38;;;19.90;99.90;;;;;;5014633;28;20079;-72
2022/07/31 09:47:06;;;;;;;9.18;6.05;;;19.90;99.90;;;;;;5011083;28;20053;-72
2022/07/31 09:49:33;;;;;;;10.13;5.82;;;19.90;99.90;;;;;;5019706;28;20045;-71
2022/07/31 09:52:02;;;;;;;12.32;6.63;;;19.80;99.90;;;;;;5016282;28;20718;-71
2022/07/31 09:54:30;;;;;;;8.93;6.18;;;19.80;99.90;;;;;;5022547;28;20952;-71
2022/07/31 09:56:56;;;;;;;10.90;6.82;;;19.80;99.90;;;;;;5023597;28;20099;-71
2022/07/31 09:59:24;;;;;;;9.55;6.55;;;19.70;99.90;;;;;;5010987;28;20047;-71
2022/07/31 10:01:50;;;;;;;9.98;6.68;;;19.70;99.90;;;;;;5019132;28;21454;-70
2022/07/31 10:04:17;;;;;;;10.20;6.25;;;19.70;99.90;;;;;;5018606;28;20033;-70
2022/07/31 10:06:48;;;;;;;12.15;6.65;;;19.70;99.90;;;;;;5018791;28;20026;-72
2022/07/31 10:09:16;;;;;;;12.93;7.05;;;19.80;99.90;;;;;;5014678;28;20036;-71
2022/07/31 10:11:44;;;;;;;12.57;6.03;;;19.70;99.90;;;;;;5016112;28;20041;-71
2022/07/31 10:14:15;;;;;;;11.73;6.53;;;19.80;99.90;;;;;;5013040;28;20049;-70
2022/07/31 10:16:42;;;;;;;11.65;6.90;;;19.70;99.90;;;;;;5001714;28;20160;-72
2022/07/31 10:19:12;;;;;;;11.65;6.28;;;19.70;99.90;;;;;;5002841;28;20615;-72
2022/07/31 10:21:41;;;;;;;9.30;6.03;;;19.70;99.90;;;;;;5020826;28;20067;-72
2022/07/31 10:24:11;;;;;;;9.10;5.70;;;19.80;99.90;;;;;;5005877;28;20164;-72
2022/07/31 10:26:37;;;;;;;10.15;6.50;;;19.70;99.90;;;;;;5028039;28;20501;-71
2022/07/31 10:29:03;;;;;;;9.90;6.60;;;19.80;99.90;;;;;;4996983;28;20046;-72
2022/07/31 10:31:30;;;;;;;9.07;5.53;;;19.80;99.90;;;;;;5021432;28;20049;-72
2022/07/31 10:33:57;;;;;;;11.57;6.68;;;19.80;99.90;;;;;;5018217;28;20037;-72
2022/07/31 10:36:32;;;;;;;10.23;6.13;;;19.80;99.90;;;;;;5009514;28;20115;-72
2022/07/31 10:39:23;;;;;;;9.43;6.47;;;19.80;99.90;;;;;;5016825;28;20055;-72
2022/07/31 10:42:14;;;;;;;9.88;6.35;;;19.80;99.90;;;;;;5017982;28;20042;-72
2022/07/31 10:45:02;;;;;;;10.65;6.68;;;19.80;99.90;;;;;;5027624;28;20041;-72
2022/07/31 10:47:31;;;;;;;8.80;6.45;;;19.70;99.90;;;;;;5023880;28;20065;-72
2022/07/31 10:49:57;;;;;;;9.70;6.47;;;19.70;99.90;;;;;;4973769;28;20220;-72
2022/07/31 10:52:34;;;;;;;12.70;7.55;;;19.70;99.90;;;;;;5021474;28;20123;-72
2022/07/31 10:55:00;;;;;;;15.23;7.30;;;19.70;99.90;;;;;;5005434;28;23199;-70
2022/07/31 10:57:31;;;;;;;10.10;6.88;;;19.70;99.90;;;;;;5022424;28;20045;-71
2022/07/31 11:00:19;;;;;;;9.95;7.03;;;19.70;99.90;;;;;;5015865;28;20041;-72
2022/07/31 11:02:47;;;;;;;9.75;6.93;;;19.70;99.90;;;;;;5013041;28;20052;-73
2022/07/31 11:05:14;;;;;;;10.90;7.30;;;19.70;99.90;;;;;;5014473;28;21139;-72
2022/07/31 11:07:44;;;;;;;10.95;7.05;;;19.70;99.90;;;;;;5022543;28;20072;-71
2022/07/31 11:10:20;;;;;;;13.00;6.93;;;19.70;99.90;;;;;;5022200;28;20906;-70
2022/07/31 11:12:59;;;;;;;11.93;7.45;;;19.70;99.90;;;;;;5028550;28;20041;-73
2022/07/31 11:15:27;;;;;;;11.10;7.60;;;19.70;99.90;;;;;;5028194;28;20044;-73
2022/07/31 11:17:56;;;;;;;13.93;7.43;;;19.60;99.90;;;;;;5006115;28;20064;-73
2022/07/31 11:20:36;;;;;;;12.05;7.53;;;19.60;99.90;;;;;;5013361;28;20037;-74
2022/07/31 11:23:04;;;;;;;12.18;7.55;;;19.50;99.90;;;;;;5003925;28;20051;-72
2022/07/31 11:25:34;;;;;;;14.25;7.85;;;19.50;99.90;;;;;;4999875;28;20049;-72
2022/07/31 11:28:22;;;;;;;12.30;8.15;;;19.50;99.90;;;;;;4997213;28;20725;-72
2022/07/31 11:31:03;;;;;;;12.63;7.63;;;19.50;99.90;;;;;;5018054;28;20143;-70
2022/07/31 11:33:40;;;;;;;12.27;8.10;;;19.50;99.90;;;;;;5025825;28;20525;-68
2022/07/31 11:36:13;;;;;;;11.52;7.82;;;19.50;99.90;;;;;;5022580;28;20064;-69
2022/07/31 11:38:45;;;;;;;10.27;6.60;;;19.50;99.90;;;;;;5029622;28;20068;-69
2022/07/31 11:41:11;;;;;;;9.35;6.10;;;19.50;99.90;;;;;;5037554;28;20636;-68
2022/07/31 11:43:41;;;;;;;;;;;19.50;99.90;;;;;;5001901;28;20052;-69
2022/07/31 11:46:07;;;;;;;9.30;5.50;;;19.50;99.90;;;;;;5017099;28;19978;-69
2022/07/31 11:48:36;;;;;;;11.15;5.80;;;19.40;99.90;;;;;;5023368;28;22126;-69
2022/07/31 11:51:01;;;;;;;7.80;5.50;;;19.50;99.90;;;;;;5021982;28;20454;-69
2022/07/31 11:53:27;;;;;;;9.13;6.10;;;19.50;99.90;;;;;;5025007;28;20045;-69
2022/07/31 11:55:56;;;;;;;8.13;5.60;;;19.50;99.90;;;;;;5029880;28;20781;-69
2022/07/31 11:58:24;;;;;;;9.00;5.45;;;19.50;99.90;;;;;;5020223;28;20515;-69
2022/07/31 12:00:52;;;;;;;7.97;5.43;;;19.50;99.90;;;;;;5019988;28;20544;-69
2022/07/31 12:03:21;;;;;;;7.78;5.05;;;19.50;99.90;;;;;;5025649;28;20048;-69
2022/07/31 12:05:51;;;;;;;7.97;5.03;;;19.50;99.90;;;;;;5025357;28;20677;-69
2022/07/31 12:08:20;;;;;;;7.97;5.55;;;19.40;99.90;;;;;;5017772;28;20049;-69
2022/07/31 12:10:47;;;;;;;8.52;4.82;;;19.40;99.90;;;;;;5022867;28;20037;-69
2022/07/31 12:13:21;;;;;;;8.10;5.45;;;19.40;99.90;;;;;;5024345;28;20535;-69
2022/07/31 12:16:07;;;;;;;6.88;4.70;;;19.40;99.90;;;;;;5029507;28;20067;-70
2022/07/31 12:18:58;;;;;;;7.88;4.95;;;19.40;99.90;;;;;;5023805;28;20044;-70
2022/07/31 12:21:35;;;;;;;7.20;4.25;;;19.40;99.90;;;;;;5004066;28;20430;-69
2022/07/31 12:24:08;;;;;;;7.10;4.72;;;19.40;99.90;;;;;;5024808;28;20120;-68
2022/07/31 12:26:34;;;;;;;7.78;4.00;;;19.40;99.90;;;;;;5029206;28;20502;-69
2022/07/31 12:29:03;;;;;;;;;;;19.40;99.90;;;;;;5026233;28;20104;-70
2022/07/31 12:31:41;;;;;;;6.97;3.20;;;19.50;99.90;;;;;;5029049;28;19927;-69
2022/07/31 12:34:07;;;;;;;4.18;2.45;;;19.50;99.90;;;;;;5003259;28;20061;-70
2022/07/31 12:36:33;;;;;;;3.92;2.42;;;19.50;99.90;;;;;;5020329;28;20041;-69
2022/07/31 12:39:00;;;;;;;4.85;2.75;;;19.50;99.90;;;;;;5025597;28;20041;-69
2022/07/31 12:41:30;;;;;;;4.80;3.28;;;19.50;99.90;;;;;;5023779;28;20077;-69
2022/07/31 12:44:11;;;;;;;4.88;3.55;;;19.60;99.90;;;;;;5026550;28;20451;-69
2022/07/31 12:46:37;;;;;;;5.40;3.08;;;19.60;99.90;;;;;;5023432;28;20393;-69
2022/07/31 12:49:04;;;;;;;7.53;4.35;;;19.60;99.90;;;;;;5002846;28;20304;-69
2022/07/31 12:51:33;;;;;;;5.10;3.58;;;19.60;99.90;;;;;;5024396;28;20047;-69
2022/07/31 12:54:01;;;;;;;5.20;3.22;;;19.60;99.90;;;;;;5021964;28;20469;-68
2022/07/31 12:56:27;;;;;;;5.13;3.33;;;19.60;99.90;;;;;;5026735;28;20077;-68